Terminal Aerodrome Forecast
Issued by NWS Sioux Falls, SD

Home | Current Version | Previous Version | Text Only | Print | Product List | Glossary On
Versions: 1 2 3 4 5 6 7 8 9 10 11 12 13 14 15 16 17 18 19 20 21 22 23 24 25 26 27 28 29 30 31
000
FTUS43 KFSD 130858 AAB
TAFSUX
TAF AMD
KSUX 130858Z 1309/1406 VRB03KT 3SM BR SKC
      TEMPO 1309/1313 1/2SM FG VV001
     FM131400 14005KT P6SM SKC
     FM131700 18013G22KT P6SM SCT040
     FM140000 16007KT P6SM FEW040=

USA.gov is the U.S. government's official web portal to all federal, state and local government web resources and services.